createdAt,value
2017-09-29T00:01:35.263Z,26.23
2017-09-29T00:04:02.665Z,23.80
2017-09-29T00:06:30.062Z,24.60
2017-09-29T00:08:57.467Z,25.27
2017-09-29T00:11:24.859Z,25.40
2017-09-29T00:13:52.262Z,27.17
2017-09-29T00:16:19.662Z,27.03
2017-09-29T00:18:47.090Z,26.63
2017-09-29T00:21:14.486Z,27.33
2017-09-29T00:23:41.897Z,27.67
2017-09-29T00:26:09.291Z,27.00
2017-09-29T00:28:36.690Z,27.90
2017-09-29T00:31:04.088Z,28.00
2017-09-29T00:33:31.493Z,26.60
2017-09-29T00:35:58.887Z,26.83
2017-09-29T00:38:26.290Z,28.67
2017-09-29T00:40:53.711Z,26.40
2017-09-29T00:43:21.106Z,27.80
2017-09-29T00:45:48.503Z,26.33
2017-09-29T00:48:15.920Z,31.30
2017-09-29T00:50:43.320Z,29.43
2017-09-29T00:53:10.723Z,27.97
2017-09-29T00:55:38.122Z,28.50
2017-09-29T00:58:05.526Z,27.53
2017-09-29T01:00:32.940Z,28.90
2017-09-29T01:03:00.331Z,27.63
2017-09-29T01:05:27.738Z,31.10
2017-09-29T01:07:55.135Z,30.73
2017-09-29T01:10:22.535Z,32.73
2017-09-29T01:12:49.930Z,32.80
2017-09-29T01:15:17.351Z,31.77
2017-09-29T01:17:44.746Z,34.50
2017-09-29T01:20:12.153Z,33.67
2017-09-29T01:22:39.571Z,32.53
2017-09-29T01:25:06.966Z,31.47
2017-09-29T01:27:34.659Z,33.30
2017-09-29T01:30:02.055Z,32.23
2017-09-29T01:32:29.486Z,33.10
2017-09-29T01:34:56.886Z,31.03
2017-09-29T01:37:24.283Z,29.23
2017-09-29T01:39:51.696Z,30.90
2017-09-29T01:42:19.092Z,28.37
2017-09-29T01:44:46.503Z,33.30
2017-09-29T01:47:13.904Z,31.67
2017-09-29T01:49:41.314Z,29.83
2017-09-29T01:52:08.719Z,28.43
2017-09-29T01:54:36.110Z,32.20
2017-09-29T01:57:03.519Z,30.80
2017-09-29T01:59:30.919Z,31.30
2017-09-29T02:01:58.348Z,28.27
2017-09-29T02:04:25.746Z,26.47
2017-09-29T02:06:53.149Z,27.80
2017-09-29T02:09:20.551Z,28.90
2017-09-29T02:11:47.950Z,31.87
2017-09-29T02:14:15.375Z,29.37
2017-09-29T02:16:42.778Z,27.93
2017-09-29T02:19:10.175Z,27.90
2017-09-29T02:21:37.578Z,30.07
2017-09-29T02:24:04.976Z,32.50
2017-09-29T02:26:32.374Z,32.20
2017-09-29T02:28:59.770Z,31.60
2017-09-29T02:31:27.177Z,32.33
2017-09-29T02:33:54.577Z,32.10
2017-09-29T02:36:21.961Z,32.43
2017-09-29T02:38:49.368Z,31.83
2017-09-29T02:41:16.763Z,31.53
2017-09-29T02:43:44.168Z,30.40
2017-09-29T02:46:11.562Z,29.50
2017-09-29T02:48:38.975Z,30.20
2017-09-29T02:51:06.375Z,29.10
2017-09-29T02:53:33.779Z,29.20
2017-09-29T02:56:01.191Z,29.10
2017-09-29T02:58:31.259Z,25.77
2017-09-29T03:01:00.246Z,29.17
2017-09-29T03:03:30.579Z,27.70
2017-09-29T03:05:58.447Z,25.60
2017-09-29T03:08:25.846Z,27.00
2017-09-29T03:10:53.254Z,25.93
2017-09-29T03:13:20.659Z,26.87
2017-09-29T03:15:48.050Z,25.23
2017-09-29T03:18:15.455Z,24.83
2017-09-29T03:20:42.854Z,25.80
2017-09-29T03:23:10.267Z,26.57
2017-09-29T03:25:37.656Z,27.13
2017-09-29T03:28:05.063Z,28.23
2017-09-29T03:30:32.471Z,28.80
2017-09-29T03:32:59.876Z,26.30
2017-09-29T03:35:27.281Z,29.33
2017-09-29T03:37:54.678Z,30.33
2017-09-29T03:40:22.081Z,29.37
2017-09-29T03:42:49.476Z,31.40
2017-09-29T03:45:16.886Z,31.80
2017-09-29T03:47:44.286Z,28.10
2017-09-29T03:50:11.947Z,31.10
2017-09-29T03:52:39.647Z,33.03
2017-09-29T03:55:09.255Z,30.67
2017-09-29T03:57:36.900Z,31.37
2017-09-29T04:00:04.294Z,30.13
2017-09-29T04:02:31.698Z,30.30
2017-09-29T04:04:59.093Z,30.20
2017-09-29T04:07:26.504Z,30.30
2017-09-29T04:09:53.899Z,26.50
2017-09-29T04:12:21.295Z,29.13
2017-09-29T04:14:48.690Z,28.43
2017-09-29T04:17:16.097Z,29.67
2017-09-29T04:19:43.482Z,28.10
2017-09-29T04:22:10.880Z,27.70
2017-09-29T04:24:38.324Z,25.70
2017-09-29T04:27:05.696Z,24.70
2017-09-29T04:29:33.096Z,29.37
2017-09-29T04:32:00.502Z,27.80
2017-09-29T04:34:27.894Z,28.53
2017-09-29T04:36:55.298Z,26.67
2017-09-29T04:39:22.694Z,27.40
2017-09-29T04:41:50.090Z,26.63
2017-09-29T04:44:17.492Z,24.20
2017-09-29T04:46:44.890Z,27.30
2017-09-29T04:49:12.330Z,26.97
2017-09-29T04:51:39.708Z,26.73
2017-09-29T04:54:07.119Z,25.57
2017-09-29T04:56:34.519Z,26.30
2017-09-29T04:59:01.919Z,29.10
2017-09-29T05:01:29.323Z,25.87
2017-09-29T05:03:56.721Z,26.33
2017-09-29T05:06:24.125Z,25.93
2017-09-29T05:08:51.513Z,28.53
2017-09-29T05:11:18.914Z,25.73
2017-09-29T05:13:46.306Z,24.30
2017-09-29T05:16:13.707Z,24.50
2017-09-29T05:18:41.106Z,25.00
2017-09-29T05:21:08.506Z,24.97
2017-09-29T05:23:35.908Z,23.10
2017-09-29T05:26:03.747Z,23.90
2017-09-29T05:28:31.134Z,25.93
2017-09-29T05:30:58.530Z,25.17
2017-09-29T05:33:25.923Z,21.70
2017-09-29T05:35:53.323Z,22.00
2017-09-29T05:38:20.716Z,22.67
2017-09-29T05:40:48.123Z,24.03
2017-09-29T05:43:15.516Z,24.43
2017-09-29T05:45:42.934Z,22.20
2017-09-29T05:48:10.337Z,21.03
2017-09-29T05:50:37.731Z,23.53
2017-09-29T05:53:05.135Z,24.17
2017-09-29T05:55:32.539Z,25.50
2017-09-29T05:57:59.959Z,23.30
2017-09-29T06:00:27.354Z,25.03
2017-09-29T06:02:54.762Z,25.87
2017-09-29T06:05:22.162Z,26.10
2017-09-29T06:07:49.554Z,25.07
2017-09-29T06:10:16.956Z,24.30
2017-09-29T06:12:44.355Z,25.37
2017-09-29T06:15:11.760Z,22.80
2017-09-29T06:17:39.151Z,22.77
2017-09-29T06:20:06.559Z,21.77
2017-09-29T06:22:33.954Z,23.00
2017-09-29T06:25:01.355Z,23.40
2017-09-29T06:27:28.758Z,24.07
2017-09-29T06:29:56.154Z,21.97
2017-09-29T06:32:23.554Z,23.07
2017-09-29T06:34:50.945Z,25.10
2017-09-29T06:37:18.355Z,24.40
2017-09-29T06:39:45.751Z,23.40
2017-09-29T06:42:13.147Z,25.63
2017-09-29T06:44:40.556Z,25.63
2017-09-29T06:47:07.955Z,25.97
2017-09-29T06:49:35.358Z,23.07
2017-09-29T06:52:02.764Z,26.00
2017-09-29T06:54:30.170Z,22.77
2017-09-29T06:56:57.566Z,23.70
2017-09-29T06:59:24.971Z,23.23
2017-09-29T07:01:52.375Z,24.17
2017-09-29T07:04:19.766Z,23.57
2017-09-29T07:06:47.173Z,24.10
2017-09-29T07:09:14.570Z,24.20
2017-09-29T07:11:41.974Z,23.10
2017-09-29T07:14:09.374Z,23.33
2017-09-29T07:16:36.779Z,24.53
2017-09-29T07:19:04.175Z,24.97
2017-09-29T07:21:31.566Z,23.43
2017-09-29T07:23:58.967Z,22.43
2017-09-29T07:26:28.279Z,23.43
2017-09-29T07:28:57.646Z,22.43
2017-09-29T07:31:27.019Z,22.43
2017-09-29T07:33:54.439Z,22.50
2017-09-29T07:36:21.835Z,23.60
2017-09-29T07:38:49.243Z,22.93
2017-09-29T07:41:16.635Z,21.60
2017-09-29T07:43:44.044Z,22.17
2017-09-29T07:46:11.443Z,21.10
2017-09-29T07:48:38.888Z,19.27
2017-09-29T07:51:06.286Z,20.47
2017-09-29T07:53:33.688Z,21.00
2017-09-29T07:56:01.095Z,21.47
2017-09-29T07:58:28.493Z,19.23
2017-09-29T08:00:55.891Z,17.90
2017-09-29T08:03:23.291Z,19.63
2017-09-29T08:05:50.703Z,18.63
2017-09-29T08:08:18.099Z,17.93
2017-09-29T08:10:45.502Z,19.13
2017-09-29T08:13:12.909Z,17.20
2017-09-29T08:15:40.315Z,18.53
2017-09-29T08:18:07.706Z,16.60
2017-09-29T08:20:35.102Z,17.63
2017-09-29T08:23:02.522Z,16.60
2017-09-29T08:25:29.913Z,18.20
2017-09-29T08:27:57.311Z,17.37
2017-09-29T08:30:24.710Z,17.10
2017-09-29T08:32:52.117Z,18.00
2017-09-29T08:35:19.529Z,16.97
2017-09-29T08:37:46.918Z,15.63
2017-09-29T08:40:14.323Z,15.27
2017-09-29T08:42:41.722Z,14.60
2017-09-29T08:45:09.142Z,15.77
2017-09-29T08:47:36.529Z,15.60
2017-09-29T08:50:03.926Z,16.33
2017-09-29T08:52:31.326Z,14.17
2017-09-29T08:54:58.724Z,14.20
2017-09-29T08:57:26.126Z,13.60
2017-09-29T08:59:53.524Z,13.40
2017-09-29T09:02:20.922Z,13.73
2017-09-29T09:04:48.317Z,11.63
2017-09-29T09:07:15.727Z,13.20
2017-09-29T09:09:43.123Z,12.83
2017-09-29T09:12:10.528Z,11.40
2017-09-29T09:14:37.928Z,11.80
2017-09-29T09:17:05.326Z,12.20
2017-09-29T09:19:32.731Z,10.63
2017-09-29T09:22:00.127Z,10.90
2017-09-29T09:24:27.535Z,12.50
2017-09-29T09:26:54.939Z,13.43
2017-09-29T09:29:22.361Z,12.07
2017-09-29T09:31:49.754Z,11.60
2017-09-29T09:34:17.150Z,11.03
2017-09-29T09:36:44.558Z,11.17
2017-09-29T09:39:11.946Z,10.87
2017-09-29T09:41:39.353Z,11.17
2017-09-29T09:44:06.755Z,12.47
2017-09-29T09:46:34.206Z,11.60
2017-09-29T09:49:01.608Z,11.33
2017-09-29T09:51:29.003Z,11.60
2017-09-29T09:53:56.403Z,10.20
2017-09-29T09:56:23.831Z,11.03
2017-09-29T09:58:51.250Z,10.13
2017-09-29T10:01:18.653Z,11.40
2017-09-29T10:03:46.047Z,10.97
2017-09-29T10:06:13.446Z,11.37
2017-09-29T10:08:40.843Z,10.50
2017-09-29T10:11:08.251Z,10.63
2017-09-29T10:13:35.647Z,11.63
2017-09-29T10:16:03.042Z,10.50
2017-09-29T10:18:30.454Z,9.93
2017-09-29T10:20:57.851Z,10.00
2017-09-29T10:23:25.254Z,11.07
2017-09-29T10:25:52.642Z,10.83
2017-09-29T10:28:20.232Z,9.60
2017-09-29T10:30:47.615Z,9.03
2017-09-29T10:33:15.009Z,9.07
2017-09-29T10:35:42.406Z,9.53
2017-09-29T10:38:09.801Z,9.17
2017-09-29T10:40:37.199Z,10.17
2017-09-29T10:43:04.594Z,9.40
2017-09-29T10:45:32.004Z,8.83
2017-09-29T10:47:59.387Z,9.23
2017-09-29T10:50:26.779Z,9.60
2017-09-29T10:52:54.177Z,9.63
2017-09-29T10:55:21.566Z,9.27
2017-09-29T10:57:48.954Z,8.40
2017-09-29T11:00:16.346Z,9.77
2017-09-29T11:02:43.750Z,9.13
2017-09-29T11:05:11.150Z,9.57
2017-09-29T11:07:38.548Z,10.73
2017-09-29T11:10:05.951Z,9.60
2017-09-29T11:12:33.338Z,8.77
2017-09-29T11:15:00.742Z,9.83
2017-09-29T11:17:28.131Z,9.30
2017-09-29T11:19:55.541Z,9.70
2017-09-29T11:22:22.926Z,8.20
2017-09-29T11:24:50.315Z,9.10
2017-09-29T11:27:17.706Z,8.13
2017-09-29T11:29:45.103Z,7.97
2017-09-29T11:32:12.495Z,8.97
2017-09-29T11:34:39.890Z,7.70
2017-09-29T11:37:07.287Z,7.80
2017-09-29T11:39:34.680Z,8.33
2017-09-29T11:42:02.067Z,9.23
2017-09-29T11:44:29.462Z,8.47
2017-09-29T11:46:56.865Z,9.03
2017-09-29T11:49:24.271Z,8.37
2017-09-29T11:51:51.662Z,9.07
2017-09-29T11:54:19.042Z,9.13
2017-09-29T11:56:46.447Z,8.67
2017-09-29T11:59:13.834Z,9.23
2017-09-29T12:01:41.226Z,8.40
2017-09-29T12:04:08.622Z,9.30
2017-09-29T12:06:36.036Z,8.40
2017-09-29T12:09:03.425Z,8.40
2017-09-29T12:11:30.826Z,9.73
2017-09-29T12:13:58.221Z,8.33
2017-09-29T12:16:25.619Z,10.87
2017-09-29T12:18:53.014Z,8.90
2017-09-29T12:21:20.407Z,10.20
2017-09-29T12:23:47.880Z,9.73
2017-09-29T12:26:15.283Z,10.00
2017-09-29T12:28:42.689Z,9.87
2017-09-29T12:31:10.090Z,11.17
2017-09-29T12:33:37.486Z,10.90
2017-09-29T12:36:05.206Z,10.23
2017-09-29T12:38:32.604Z,10.77
2017-09-29T12:41:00.795Z,9.20
2017-09-29T12:43:28.195Z,10.67
2017-09-29T12:45:55.641Z,10.60
2017-09-29T12:48:23.041Z,9.70
2017-09-29T12:50:50.886Z,9.80
2017-09-29T12:53:18.298Z,10.30
2017-09-29T12:55:45.694Z,10.63
2017-09-29T12:58:13.113Z,10.40
2017-09-29T13:00:40.506Z,10.90
2017-09-29T13:03:07.906Z,10.70
2017-09-29T13:05:35.342Z,10.63
2017-09-29T13:08:02.709Z,10.57
2017-09-29T13:10:30.118Z,10.00
2017-09-29T13:12:57.514Z,10.20
2017-09-29T13:15:24.983Z,9.90
2017-09-29T13:17:52.359Z,9.90
2017-09-29T13:20:19.759Z,10.90
2017-09-29T13:22:47.180Z,10.73
2017-09-29T13:25:14.576Z,11.50
2017-09-29T13:27:41.982Z,12.90
2017-09-29T13:30:09.386Z,10.63
2017-09-29T13:32:36.788Z,11.27
2017-09-29T13:35:04.190Z,10.53
2017-09-29T13:37:31.591Z,10.90
2017-09-29T13:39:59.018Z,10.60
2017-09-29T13:42:26.415Z,11.23
2017-09-29T13:44:53.814Z,11.47
2017-09-29T13:47:21.214Z,11.60
2017-09-29T13:49:48.619Z,11.63
2017-09-29T13:52:16.008Z,12.00
2017-09-29T13:54:43.402Z,11.40
2017-09-29T13:57:10.815Z,11.43
2017-09-29T13:59:38.210Z,12.80
2017-09-29T14:02:06.637Z,11.70
2017-09-29T14:04:34.051Z,11.60
2017-09-29T14:07:01.451Z,10.37
2017-09-29T14:09:28.886Z,12.30
2017-09-29T14:11:56.373Z,10.97
2017-09-29T14:14:23.763Z,10.80
2017-09-29T14:16:51.169Z,10.33
2017-09-29T14:19:19.202Z,11.03
2017-09-29T14:21:46.615Z,10.97
2017-09-29T14:24:14.017Z,10.80
2017-09-29T14:26:41.422Z,10.80
2017-09-29T14:29:09.639Z,10.37
2017-09-29T14:31:37.048Z,11.63
2017-09-29T14:34:04.447Z,11.10
2017-09-29T14:36:31.845Z,12.00
2017-09-29T14:38:59.246Z,11.10
2017-09-29T14:41:26.649Z,11.50
2017-09-29T14:43:55.654Z,12.03
2017-09-29T14:46:23.053Z,11.77
2017-09-29T14:48:51.454Z,11.47
2017-09-29T14:51:18.859Z,11.30
2017-09-29T14:53:46.266Z,11.33
2017-09-29T14:56:13.681Z,10.23
2017-09-29T14:58:41.099Z,10.60
2017-09-29T15:01:08.526Z,10.90
2017-09-29T15:03:35.950Z,11.37
2017-09-29T15:06:03.360Z,11.80
2017-09-29T15:08:30.754Z,10.63
2017-09-29T15:10:58.219Z,11.63
2017-09-29T15:13:25.617Z,11.90
2017-09-29T15:15:53.866Z,11.47
2017-09-29T15:18:21.274Z,11.03
2017-09-29T15:20:48.678Z,11.30
2017-09-29T15:23:16.081Z,10.60
2017-09-29T15:25:43.474Z,10.83
2017-09-29T15:28:10.887Z,12.07
2017-09-29T15:30:38.282Z,11.40
2017-09-29T15:33:05.699Z,10.90
2017-09-29T15:35:33.222Z,11.40
2017-09-29T15:38:00.614Z,10.80
2017-09-29T15:40:28.018Z,9.40
2017-09-29T15:42:55.443Z,10.43
2017-09-29T15:45:22.842Z,10.43
2017-09-29T15:47:50.283Z,10.10
2017-09-29T15:50:17.693Z,10.57
2017-09-29T15:52:45.092Z,9.97
2017-09-29T15:55:12.504Z,10.33
2017-09-29T15:57:39.906Z,10.60
2017-09-29T16:00:07.308Z,9.53
2017-09-29T16:02:34.711Z,9.70
2017-09-29T16:05:02.106Z,9.33
2017-09-29T16:07:29.535Z,8.50
2017-09-29T16:09:56.922Z,8.80
2017-09-29T16:12:24.329Z,10.20
2017-09-29T16:14:51.722Z,9.17
2017-09-29T16:17:19.128Z,9.07
2017-09-29T16:19:46.519Z,9.40
2017-09-29T16:22:13.910Z,9.67
2017-09-29T16:24:41.310Z,9.90
2017-09-29T16:27:08.994Z,9.03
2017-09-29T16:29:36.395Z,9.30
2017-09-29T16:32:03.782Z,8.70
2017-09-29T16:34:31.174Z,9.03
2017-09-29T16:36:58.567Z,8.80
2017-09-29T16:39:25.970Z,8.00
2017-09-29T16:41:53.357Z,8.87
2017-09-29T16:44:20.798Z,8.73
2017-09-29T16:46:48.196Z,8.73
2017-09-29T16:49:15.590Z,9.53
2017-09-29T16:51:42.978Z,8.93
2017-09-29T16:54:10.378Z,8.93
2017-09-29T16:56:37.786Z,9.10
2017-09-29T16:59:05.171Z,8.67
2017-09-29T17:01:32.562Z,8.97
2017-09-29T17:03:59.957Z,8.53
2017-09-29T17:06:27.354Z,9.00
2017-09-29T17:08:54.768Z,9.60
2017-09-29T17:11:22.170Z,9.67
2017-09-29T17:13:49.570Z,9.50
2017-09-29T17:16:16.962Z,8.70
2017-09-29T17:18:44.366Z,10.10
2017-09-29T17:21:11.771Z,9.03
2017-09-29T17:23:39.213Z,9.00
2017-09-29T17:26:06.605Z,8.80
2017-09-29T17:28:33.989Z,8.90
2017-09-29T17:31:01.378Z,8.77
2017-09-29T17:33:28.770Z,9.00
2017-09-29T17:35:56.180Z,8.80
2017-09-29T17:38:23.571Z,8.30
2017-09-29T17:40:50.992Z,8.73
2017-09-29T17:43:18.381Z,8.80
2017-09-29T17:45:45.778Z,8.10
2017-09-29T17:48:13.163Z,7.93
2017-09-29T17:50:40.555Z,8.13
2017-09-29T17:53:07.950Z,9.00
2017-09-29T17:55:35.355Z,10.20
2017-09-29T17:58:02.755Z,10.50
2017-09-29T18:00:30.146Z,9.53
2017-09-29T18:02:57.535Z,8.97
2017-09-29T18:05:30.846Z,9.80
2017-09-29T18:07:58.234Z,9.83
2017-09-29T18:10:25.647Z,10.43
2017-09-29T18:12:53.034Z,9.33
2017-09-29T18:15:21.259Z,9.27
2017-09-29T18:17:48.687Z,10.80
2017-09-29T18:20:16.095Z,9.80
2017-09-29T18:22:43.492Z,10.13
2017-09-29T18:25:10.879Z,10.13
2017-09-29T18:27:38.286Z,9.63
2017-09-29T18:30:05.679Z,9.70
2017-09-29T18:32:33.077Z,10.70
2017-09-29T18:35:00.479Z,11.00
2017-09-29T18:37:27.895Z,10.10
2017-09-29T18:39:55.290Z,11.70
2017-09-29T18:42:22.755Z,12.13
2017-09-29T18:47:49.107Z,11.30
2017-09-29T18:50:16.515Z,10.23
2017-09-29T18:52:43.911Z,10.30
2017-09-29T18:55:11.337Z,11.60
2017-09-29T18:57:38.730Z,11.50
2017-09-29T19:00:06.126Z,11.03
2017-09-29T19:02:33.530Z,11.20
2017-09-29T19:05:00.931Z,12.10
2017-09-29T19:07:28.334Z,11.77
2017-09-29T19:09:55.730Z,12.00
2017-09-29T19:12:23.151Z,10.97
2017-09-29T19:14:50.546Z,11.67
2017-09-29T19:17:17.947Z,11.00
2017-09-29T19:19:45.346Z,11.77
2017-09-29T19:22:12.738Z,11.33
2017-09-29T19:24:40.142Z,10.97
2017-09-29T19:27:07.539Z,11.10
2017-09-29T19:29:34.950Z,12.60
2017-09-29T19:32:02.346Z,11.37
2017-09-29T19:34:29.742Z,11.50
2017-09-29T19:36:57.150Z,11.60
2017-09-29T19:39:24.572Z,10.83
2017-09-29T19:41:51.954Z,11.33
2017-09-29T19:44:19.354Z,11.50
2017-09-29T19:46:46.773Z,10.93
2017-09-29T19:49:14.163Z,11.83
2017-09-29T19:51:41.558Z,11.97
2017-09-29T19:54:08.959Z,12.23
2017-09-29T19:56:36.406Z,11.63
2017-09-29T19:59:03.811Z,11.23
2017-09-29T20:01:31.206Z,10.80
2017-09-29T20:03:58.626Z,10.97
2017-09-29T20:06:26.035Z,11.40
2017-09-29T20:08:53.455Z,11.80
2017-09-29T20:11:20.842Z,12.03
2017-09-29T20:13:48.234Z,12.00
2017-09-29T20:16:15.636Z,12.47
2017-09-29T20:18:43.037Z,11.37
2017-09-29T20:21:10.471Z,11.70
2017-09-29T20:23:37.882Z,12.10
2017-09-29T20:26:05.283Z,12.37
2017-09-29T20:28:32.682Z,11.20
2017-09-29T20:31:00.080Z,11.03
2017-09-29T20:33:27.486Z,11.77
2017-09-29T20:35:54.877Z,11.90
2017-09-29T20:38:22.289Z,11.50
2017-09-29T20:40:49.700Z,11.50
2017-09-29T20:43:17.094Z,12.60
2017-09-29T20:45:44.504Z,12.47
2017-09-29T20:48:11.902Z,12.20
2017-09-29T20:50:39.311Z,11.57
2017-09-29T20:53:06.709Z,12.60
2017-09-29T20:55:34.113Z,13.23
2017-09-29T20:58:01.510Z,12.90
2017-09-29T21:00:28.935Z,13.13
2017-09-29T21:02:56.328Z,12.20
2017-09-29T21:05:23.731Z,12.10
2017-09-29T21:07:51.130Z,13.07
2017-09-29T21:10:18.522Z,13.23
2017-09-29T21:12:45.933Z,13.33
2017-09-29T21:15:13.334Z,12.13
2017-09-29T21:17:40.755Z,11.87
2017-09-29T21:20:08.159Z,12.90
2017-09-29T21:22:35.570Z,13.10
2017-09-29T21:25:02.972Z,13.53
2017-09-29T21:27:30.367Z,13.20
2017-09-29T21:29:57.771Z,13.27
2017-09-29T21:32:25.166Z,13.27
2017-09-29T21:34:52.579Z,12.50
2017-09-29T21:37:19.982Z,13.73
2017-09-29T21:39:47.382Z,12.37
2017-09-29T21:42:14.788Z,13.10
2017-09-29T21:44:42.215Z,13.83
2017-09-29T21:47:09.607Z,14.20
2017-09-29T21:49:37.006Z,14.40
2017-09-29T21:52:04.410Z,13.50
2017-09-29T21:54:31.817Z,13.87
2017-09-29T21:56:59.222Z,13.30
2017-09-29T21:59:26.630Z,14.03
2017-09-29T22:01:54.065Z,13.53
2017-09-29T22:04:21.465Z,15.63
2017-09-29T22:06:48.863Z,13.27
2017-09-29T22:09:16.274Z,13.80
2017-09-29T22:11:43.671Z,14.30
2017-09-29T22:14:11.075Z,13.80
2017-09-29T22:16:38.474Z,13.70
2017-09-29T22:19:05.887Z,13.37
2017-09-29T22:21:33.287Z,14.37
2017-09-29T22:24:00.682Z,15.77
2017-09-29T22:26:28.077Z,15.17
2017-09-29T22:28:55.473Z,13.90
2017-09-29T22:31:22.879Z,14.27
2017-09-29T22:33:50.274Z,15.13
2017-09-29T22:36:17.674Z,14.33
2017-09-29T22:38:45.074Z,14.30
2017-09-29T22:41:12.485Z,13.97
2017-09-29T22:43:39.875Z,13.80
2017-09-29T22:46:07.275Z,14.03
2017-09-29T22:48:34.676Z,13.77
2017-09-29T22:51:02.075Z,13.70
2017-09-29T22:53:29.482Z,13.83
2017-09-29T22:55:56.883Z,15.00
2017-09-29T22:58:24.289Z,14.50
2017-09-29T23:00:51.705Z,13.33
2017-09-29T23:03:19.090Z,15.27
2017-09-29T23:05:46.506Z,14.00
2017-09-29T23:08:13.902Z,14.30
2017-09-29T23:10:41.294Z,13.40
2017-09-29T23:13:08.686Z,14.07
2017-09-29T23:15:36.099Z,14.47
2017-09-29T23:18:03.498Z,13.73
2017-09-29T23:20:30.894Z,16.00
2017-09-29T23:22:58.295Z,14.80
2017-09-29T23:25:25.696Z,14.47
2017-09-29T23:27:53.095Z,14.60
2017-09-29T23:30:20.482Z,14.20
2017-09-29T23:32:47.896Z,15.97
2017-09-29T23:35:15.286Z,15.53
2017-09-29T23:37:42.696Z,13.63
2017-09-29T23:40:10.104Z,14.67
2017-09-29T23:42:37.497Z,14.13
2017-09-29T23:45:04.906Z,13.93
2017-09-29T23:47:32.311Z,14.10
2017-09-29T23:49:59.724Z,14.30
2017-09-29T23:52:27.126Z,14.30
2017-09-29T23:54:54.518Z,14.83
2017-09-29T23:57:21.925Z,14.77
2017-09-29T23:59:49.318Z,15.07
